Time;durP1;ratioP1;P1;durP2;ratioP2;P2;SDS_P1;SDS_P2;PMS_P1;PMS_P2;Temp;Humidity;BMP_temperature;BMP_pressure;BME280_temperature;BME280_humidity;BME280_pressure;Samples;Min_cycle;Max_cycle;Signal;HPM_P1;HPM_P2
2022/05/14 00:00:49;;;;;;;13.68;5.15;;;10.70;99.90;;;;;;5061118;28;20049;-79
2022/05/14 00:03:15;;;;;;;13.55;5.20;;;10.70;99.90;;;;;;5027692;28;20406;-79
2022/05/14 00:05:42;;;;;;;15.73;5.57;;;10.60;99.90;;;;;;5012515;28;20041;-80
2022/05/14 00:08:08;;;;;;;13.70;5.57;;;10.60;99.90;;;;;;5012094;28;20053;-79
2022/05/14 00:13:03;;;;;;;11.45;4.32;;;10.60;99.90;;;;;;5028832;28;20064;-80
2022/05/14 00:13:22;;;;;;;12.57;5.20;;;10.60;99.90;;;;;;5014211;28;20056;-80
2022/05/14 00:15:47;;;;;;;14.35;4.90;;;10.40;99.90;;;;;;5023284;28;20618;-79
2022/05/14 00:18:13;;;;;;;11.70;5.35;;;10.50;99.90;;;;;;5009448;28;20172;-79
2022/05/14 00:20:39;;;;;;;11.98;4.68;;;10.40;99.90;;;;;;5027566;28;20394;-79
2022/05/14 00:23:05;;;;;;;13.30;4.82;;;10.50;99.90;;;;;;5027955;28;20048;-79
2022/05/14 00:25:32;;;;;;;14.85;5.00;;;10.40;99.90;;;;;;5028909;28;20037;-79
2022/05/14 00:27:58;;;;;;;12.70;4.85;;;10.40;99.90;;;;;;5011487;28;20498;-79
2022/05/14 00:30:26;;;;;;;11.30;5.07;;;10.40;99.90;;;;;;5027740;28;20041;-80
2022/05/14 00:32:52;;;;;;;11.77;5.13;;;10.40;99.90;;;;;;5028089;28;20136;-79
2022/05/14 00:35:19;;;;;;;15.35;4.80;;;10.30;99.90;;;;;;5019358;28;20046;-79
2022/05/14 00:37:45;;;;;;;14.25;5.05;;;10.30;99.90;;;;;;5028648;28;20103;-79
2022/05/14 00:40:16;;;;;;;13.02;5.38;;;10.30;99.90;;;;;;5026917;28;20593;-79
2022/05/14 00:42:42;;;;;;;15.18;4.88;;;10.30;99.90;;;;;;5003303;28;20272;-79
2022/05/14 00:45:11;;;;;;;12.02;4.82;;;10.30;99.90;;;;;;5011134;28;20041;-79
2022/05/14 00:47:39;;;;;;;11.88;5.40;;;10.30;99.90;;;;;;5012168;28;20053;-79
2022/05/14 00:50:30;;;;;;;12.48;4.97;;;10.30;99.90;;;;;;5010967;28;20111;-79
2022/05/14 00:53:20;;;;;;;18.00;5.00;;;10.30;99.90;;;;;;5011722;28;20132;-79
2022/05/14 00:55:50;;;;;;;10.65;4.93;;;10.30;99.90;;;;;;5011655;28;20068;-79
2022/05/14 00:58:42;;;;;;;20.95;5.68;;;10.40;99.90;;;;;;5061089;28;20118;-79
2022/05/14 01:01:08;;;;;;;13.98;5.00;;;10.40;99.90;;;;;;5010198;28;20045;-79
2022/05/14 01:03:34;;;;;;;13.18;5.40;;;10.40;99.90;;;;;;4993681;28;20033;-79
2022/05/14 01:06:03;;;;;;;15.68;5.55;;;10.50;99.90;;;;;;5011516;28;20115;-79
2022/05/14 01:08:30;;;;;;;12.15;4.93;;;10.50;99.90;;;;;;5027244;28;20041;-78
2022/05/14 01:10:56;;;;;;;14.48;4.90;;;10.60;99.90;;;;;;5011055;28;20056;-78
2022/05/14 01:13:23;;;;;;;13.35;5.10;;;10.60;99.90;;;;;;4996375;28;20418;-78
2022/05/14 01:15:56;;;;;;;13.50;4.65;;;10.60;99.90;;;;;;5012048;28;20041;-79
2022/05/14 01:18:24;;;;;;;12.45;4.63;;;10.60;99.90;;;;;;5011828;28;20057;-79
2022/05/14 01:20:55;;;;;;;11.73;4.53;;;10.50;99.90;;;;;;5027061;28;20038;-79
2022/05/14 01:26:28;;;;;;;16.25;4.63;;;10.50;99.90;;;;;;5027141;28;20049;-79
2022/05/14 01:29:01;;;;;;;13.32;4.35;;;10.60;99.90;;;;;;5027905;28;20453;-79
2022/05/14 01:31:27;;;;;;;15.57;5.43;;;10.50;99.90;;;;;;5009366;28;20455;-79
2022/05/14 01:33:54;;;;;;;16.13;4.80;;;10.50;99.90;;;;;;5027626;28;20156;-79
2022/05/14 01:36:20;;;;;;;11.73;4.80;;;10.60;99.90;;;;;;5027432;28;20045;-79
2022/05/14 01:38:46;;;;;;;11.57;4.57;;;10.70;99.90;;;;;;5011623;28;20057;-79
2022/05/14 01:41:12;;;;;;;17.90;5.25;;;10.70;99.90;;;;;;5026779;28;20148;-79
2022/05/14 01:43:38;;;;;;;12.88;4.38;;;10.70;99.90;;;;;;5010819;28;20088;-80
2022/05/14 01:46:05;;;;;;;18.48;4.75;;;10.70;99.90;;;;;;5024785;28;20100;-79
2022/05/14 01:48:31;;;;;;;13.52;5.53;;;10.70;99.90;;;;;;5008865;28;20065;-79
2022/05/14 01:50:56;;;;;;;14.68;5.25;;;10.70;99.90;;;;;;5018056;28;20449;-80
2022/05/14 01:53:22;;;;;;;17.40;5.60;;;10.60;99.90;;;;;;5010618;28;20096;-79
2022/05/14 01:55:48;;;;;;;13.73;4.75;;;10.60;99.90;;;;;;5010210;28;20156;-79
2022/05/14 02:00:58;;;;;;;15.32;5.65;;;10.40;99.90;;;;;;5006445;28;20053;-79
2022/05/14 02:03:24;;;;;;;11.77;4.80;;;10.30;99.90;;;;;;5025877;28;20042;-79
2022/05/14 02:05:49;;;;;;;14.85;5.13;;;10.30;99.90;;;;;;5026808;28;20050;-80
2022/05/14 02:08:15;;;;;;;17.73;5.43;;;10.20;99.90;;;;;;5027232;28;20054;-79
2022/05/14 02:10:41;;;;;;;13.48;5.53;;;10.20;99.90;;;;;;5011359;28;20051;-79
2022/05/14 02:13:07;;;;;;;16.02;5.72;;;10.10;99.90;;;;;;5010972;28;20079;-79
2022/05/14 02:15:32;;;;;;;16.80;5.28;;;10.10;99.90;;;;;;5026106;28;20049;-79
2022/05/14 02:17:58;;;;;;;13.10;5.15;;;10.10;99.90;;;;;;5011196;28;20053;-79
2022/05/14 02:20:24;;;;;;;16.45;5.82;;;10.00;99.90;;;;;;5022876;28;20391;-79
2022/05/14 02:22:51;;;;;;;19.42;5.93;;;10.00;99.90;;;;;;5029375;28;20049;-79
2022/05/14 02:25:19;;;;;;;17.42;6.63;;;9.90;99.90;;;;;;5011028;28;20521;-79
2022/05/14 02:27:45;;;;;;;20.60;6.13;;;9.80;99.90;;;;;;5023717;28;20498;-79
2022/05/14 02:30:11;;;;;;;13.15;5.95;;;9.90;99.90;;;;;;5004070;28;20088;-79
2022/05/14 02:32:38;;;;;;;17.58;6.10;;;9.80;99.90;;;;;;5012628;28;20080;-79
2022/05/14 02:35:04;;;;;;;19.13;6.28;;;9.90;99.90;;;;;;5045270;28;20050;-79
2022/05/14 02:37:30;;;;;;;13.38;6.03;;;9.80;99.90;;;;;;5030061;28;20045;-79
2022/05/14 02:39:56;;;;;;;22.42;6.88;;;9.80;99.90;;;;;;5030945;28;20108;-79
2022/05/14 02:42:22;;;;;;;19.83;5.90;;;9.70;99.90;;;;;;5029379;28;20065;-79
2022/05/14 02:44:47;;;;;;;20.60;6.28;;;9.70;99.90;;;;;;5047310;28;20057;-79
2022/05/14 02:47:13;;;;;;;26.80;7.22;;;9.70;99.90;;;;;;5030784;28;20043;-80
2022/05/14 02:49:39;;;;;;;20.35;6.70;;;9.80;99.90;;;;;;5015201;28;20087;-79
2022/05/14 02:52:06;;;;;;;24.30;7.00;;;9.80;99.90;;;;;;5030669;28;20053;-79
2022/05/14 02:54:32;;;;;;;21.35;6.75;;;9.80;99.90;;;;;;5013869;28;20057;-79
2022/05/14 02:56:58;;;;;;;22.67;7.72;;;9.80;99.90;;;;;;5029960;28;20048;-79
2022/05/14 02:59:23;;;;;;;14.45;6.95;;;9.80;99.90;;;;;;4997471;28;20045;-79
2022/05/14 03:01:49;;;;;;;22.27;7.45;;;9.70;99.90;;;;;;5015048;28;20041;-80
2022/05/14 03:04:25;;;;;;;19.38;6.82;;;9.70;99.90;;;;;;5030057;28;20052;-79
2022/05/14 03:06:52;;;;;;;18.20;7.00;;;9.70;99.90;;;;;;5043172;28;20049;-79
2022/05/14 03:09:18;;;;;;;21.45;7.50;;;9.80;99.90;;;;;;5030923;28;20541;-79
2022/05/14 03:11:43;;;;;;;23.85;7.15;;;9.60;99.90;;;;;;5012323;28;20045;-80
2022/05/14 03:14:09;;;;;;;24.63;9.20;;;9.60;99.90;;;;;;5012565;28;20458;-79
2022/05/14 03:16:36;;;;;;;24.38;7.70;;;9.60;99.90;;;;;;5046228;28;20041;-79
2022/05/14 03:19:02;;;;;;;29.05;7.95;;;9.60;99.90;;;;;;5013901;28;20215;-79
2022/05/14 03:21:27;;;;;;;24.02;8.27;;;9.50;99.90;;;;;;5029639;28;20060;-79
2022/05/14 03:23:53;;;;;;;26.95;8.77;;;9.50;99.90;;;;;;5012883;28;20053;-78
2022/05/14 03:26:19;;;;;;;19.42;6.93;;;9.50;99.90;;;;;;5045824;28;20080;-78
2022/05/14 03:28:45;;;;;;;23.10;7.82;;;9.50;99.90;;;;;;5014209;28;20059;-79
2022/05/14 03:31:12;;;;;;;23.88;8.98;;;9.40;99.90;;;;;;5029105;28;20116;-80
2022/05/14 03:33:37;;;;;;;19.83;8.15;;;9.40;99.90;;;;;;5012714;28;20399;-79
2022/05/14 03:36:03;;;;;;;26.60;8.32;;;9.40;99.90;;;;;;5011565;28;20049;-79
2022/05/14 03:38:29;;;;;;;21.23;7.70;;;9.40;99.90;;;;;;5049852;28;20057;-79
2022/05/14 03:40:55;;;;;;;26.45;8.07;;;9.40;99.90;;;;;;5028563;28;20045;-79
2022/05/14 03:43:20;;;;;;;26.58;8.82;;;9.40;99.90;;;;;;5011714;28;20456;-79
2022/05/14 03:45:46;;;;;;;20.80;8.60;;;9.40;99.90;;;;;;5011876;28;20111;-79
2022/05/14 03:48:12;;;;;;;29.42;9.55;;;9.40;99.90;;;;;;5013570;28;20103;-79
2022/05/14 03:50:37;;;;;;;23.08;8.55;;;9.40;99.90;;;;;;5027194;28;20447;-79
2022/05/14 03:53:03;;;;;;;32.70;9.60;;;9.30;99.90;;;;;;5012719;28;20055;-79
2022/05/14 03:55:29;;;;;;;29.60;9.85;;;9.30;99.90;;;;;;5012336;28;20080;-79
2022/05/14 03:57:54;;;;;;;22.65;10.20;;;9.40;99.90;;;;;;5029060;28;20122;-79
2022/05/14 04:00:20;;;;;;;30.33;9.98;;;9.40;99.90;;;;;;5029509;28;20047;-79
2022/05/14 04:02:47;;;;;;;28.25;9.52;;;9.40;99.90;;;;;;5028583;28;20049;-79
2022/05/14 04:05:14;;;;;;;27.67;9.93;;;9.40;99.90;;;;;;5028437;28;20053;-79
2022/05/14 04:07:40;;;;;;;25.63;10.00;;;9.40;99.90;;;;;;5009586;28;20056;-79
2022/05/14 04:10:07;;;;;;;27.77;9.43;;;9.50;99.90;;;;;;5028110;28;20518;-79
2022/05/14 04:12:33;;;;;;;32.63;11.35;;;9.50;99.90;;;;;;5028170;28;20045;-79
2022/05/14 04:14:59;;;;;;;27.98;9.45;;;9.60;99.90;;;;;;5028519;28;20049;-80
2022/05/14 04:17:25;;;;;;;35.33;10.00;;;9.60;99.90;;;;;;4995497;28;20056;-79
2022/05/14 04:19:51;;;;;;;31.13;10.63;;;9.60;99.90;;;;;;5045042;28;20422;-79
2022/05/14 04:22:17;;;;;;;38.92;11.05;;;9.60;99.90;;;;;;5043543;28;20049;-79
2022/05/14 04:24:42;;;;;;;41.63;10.93;;;9.70;99.90;;;;;;5029091;28;20049;-79
2022/05/14 04:27:08;;;;;;;39.80;12.60;;;9.70;99.90;;;;;;5012465;28;20033;-79
2022/05/14 04:29:34;;;;;;;37.45;11.48;;;9.80;99.90;;;;;;5044951;28;20049;-78
2022/05/14 04:31:59;;;;;;;40.42;11.85;;;9.80;99.90;;;;;;5011548;28;20025;-79
2022/05/14 04:34:25;;;;;;;32.92;11.45;;;10.00;99.90;;;;;;5044584;28;20136;-79
2022/05/14 04:36:51;;;;;;;42.88;12.32;;;10.00;99.90;;;;;;5011841;28;20081;-79
2022/05/14 04:39:17;;;;;;;41.33;11.68;;;10.10;99.90;;;;;;5026228;28;20049;-79
2022/05/14 04:41:42;;;;;;;36.80;11.55;;;10.10;99.90;;;;;;5009678;28;20134;-79
2022/05/14 04:44:08;;;;;;;35.72;11.57;;;10.10;99.90;;;;;;5044714;28;20040;-79
2022/05/14 04:46:35;;;;;;;46.10;12.52;;;10.10;99.90;;;;;;5003516;28;20079;-79
2022/05/14 04:49:02;;;;;;;39.35;12.10;;;10.00;99.90;;;;;;5029351;28;20053;-79
2022/05/14 04:51:28;;;;;;;52.97;13.07;;;10.00;99.90;;;;;;5025230;28;20049;-79
2022/05/14 04:53:54;;;;;;;39.80;12.00;;;10.10;99.90;;;;;;5011527;28;20049;-79
2022/05/14 04:56:20;;;;;;;33.55;11.80;;;10.10;99.90;;;;;;5011574;28;20048;-79
2022/05/14 04:58:45;;;;;;;43.55;12.20;;;10.10;99.90;;;;;;5027108;28;20443;-79
2022/05/14 05:01:11;;;;;;;36.42;13.52;;;10.10;99.90;;;;;;5028069;28;20513;-79
2022/05/14 05:03:37;;;;;;;43.15;13.15;;;10.10;99.90;;;;;;5010297;28;20059;-79
2022/05/14 05:06:02;;;;;;;43.47;13.90;;;10.00;99.90;;;;;;5026640;28;20045;-79
2022/05/14 05:08:31;;;;;;;45.85;13.85;;;10.10;99.90;;;;;;5043702;28;20056;-79
2022/05/14 05:10:57;;;;;;;41.47;13.27;;;10.10;99.90;;;;;;5026754;28;20595;-79
2022/05/14 05:13:26;;;;;;;36.28;12.82;;;10.10;99.90;;;;;;5011437;28;20132;-79
2022/05/14 05:15:52;;;;;;;43.03;13.57;;;10.20;99.90;;;;;;5009861;28;20586;-79
2022/05/14 05:18:19;;;;;;;42.25;13.73;;;10.30;99.90;;;;;;5026863;28;20045;-79
2022/05/14 05:20:49;;;;;;;51.88;14.35;;;10.30;99.90;;;;;;5010719;28;20044;-80
2022/05/14 05:23:17;;;;;;;45.17;13.70;;;10.40;99.90;;;;;;5026950;28;20041;-80
2022/05/14 05:25:43;;;;;;;44.47;13.70;;;10.40;99.90;;;;;;5026487;28;20041;-79
2022/05/14 05:28:09;;;;;;;37.33;13.07;;;10.50;99.90;;;;;;5010374;28;20044;-79
2022/05/14 05:30:35;;;;;;;50.25;15.23;;;10.60;99.90;;;;;;5029590;28;20114;-79
2022/05/14 05:33:02;;;;;;;44.42;15.18;;;10.60;99.90;;;;;;5012033;28;20482;-80
2022/05/14 05:35:28;;;;;;;34.08;13.27;;;10.70;99.90;;;;;;5028549;28;20092;-80
2022/05/14 05:37:53;;;;;;;39.97;13.77;;;10.80;99.90;;;;;;5010503;28;20061;-80
2022/05/14 05:40:20;;;;;;;37.78;12.85;;;11.00;99.90;;;;;;5001990;28;20057;-84
2022/05/14 05:42:46;;;;;;;44.88;13.57;;;11.00;99.90;;;;;;5024482;28;20041;-85
2022/05/14 05:45:14;;;;;;;41.15;12.65;;;11.20;99.90;;;;;;5027394;28;20053;-85
2022/05/14 05:47:40;;;;;;;36.88;12.55;;;11.30;99.90;;;;;;5010080;28;20067;-85
2022/05/14 05:50:07;;;;;;;34.13;13.00;;;11.50;99.90;;;;;;5027258;28;20499;-88
2022/05/14 05:52:33;;;;;;;33.88;12.45;;;11.60;99.90;;;;;;5044991;28;20056;-86
2022/05/14 05:57:44;;;;;;;34.42;11.52;;;11.90;99.90;;;;;;5031101;28;20050;-89
2022/05/14 06:00:16;;;;;;;42.58;12.05;;;11.90;99.90;;;;;;5014254;28;20050;-92
2022/05/14 06:02:42;;;;;;;35.05;12.55;;;12.00;99.90;;;;;;5030376;28;20088;-85
2022/05/14 06:05:08;;;;;;;30.25;11.52;;;12.00;99.90;;;;;;5031112;28;20073;-89
2022/05/14 06:07:35;;;;;;;41.13;11.10;;;12.00;99.90;;;;;;5013205;28;20048;-86
2022/05/14 06:10:04;;;;;;;43.65;11.95;;;11.80;99.90;;;;;;5013447;28;20041;-86
2022/05/14 06:12:30;;;;;;;40.70;12.15;;;11.90;99.90;;;;;;5048837;28;20080;-83
2022/05/14 06:14:56;;;;;;;36.63;11.85;;;11.90;99.90;;;;;;5027709;28;20042;-86
2022/05/14 06:17:22;;;;;;;37.72;11.52;;;11.90;99.90;;;;;;4990014;28;20443;-85
2022/05/14 06:19:48;;;;;;;38.10;11.88;;;12.00;99.90;;;;;;5012836;28;20132;-84
2022/05/14 06:22:13;;;;;;;36.53;11.77;;;12.10;99.90;;;;;;5045149;28;20045;-85
2022/05/14 06:24:39;;;;;;;39.70;10.68;;;12.40;99.90;;;;;;5030546;28;20041;-82
2022/05/14 06:27:05;;;;;;;33.17;10.77;;;12.70;99.90;;;;;;5006395;28;20120;-83
2022/05/14 06:29:32;;;;;;;35.75;9.70;;;12.90;99.90;;;;;;5032328;28;20053;-84
2022/05/14 06:31:59;;;;;;;31.95;8.85;;;13.20;99.90;;;;;;5031343;28;20049;-84
2022/05/14 06:34:25;;;;;;;29.77;8.00;;;13.40;99.90;;;;;;5015496;28;20103;-83
2022/05/14 06:36:52;;;;;;;31.08;8.13;;;13.70;99.90;;;;;;5048460;28;20171;-83
2022/05/14 06:39:18;;;;;;;25.75;7.60;;;13.90;99.90;;;;;;5044247;28;20131;-85
2022/05/14 06:41:44;;;;;;;31.00;7.60;;;14.20;99.90;;;;;;5014517;28;20050;-83
2022/05/14 06:44:10;;;;;;;24.45;6.00;;;14.40;99.90;;;;;;4998694;28;20458;-84
2022/05/14 06:46:36;;;;;;;22.27;7.00;;;14.70;99.90;;;;;;5047411;28;20053;-84
2022/05/14 06:49:03;;;;;;;27.95;6.03;;;14.80;99.90;;;;;;5031432;28;20053;-84
2022/05/14 06:51:30;;;;;;;24.38;5.18;;;15.00;99.90;;;;;;5014659;28;20128;-83
2022/05/14 06:54:06;;;;;;;21.63;5.90;;;15.30;99.90;;;;;;5044443;28;20041;-84
2022/05/14 06:56:34;;;;;;;24.48;5.28;;;15.50;99.90;;;;;;5008591;28;20049;-83
2022/05/14 06:59:01;;;;;;;21.50;5.82;;;15.70;99.90;;;;;;5014190;28;20042;-83
2022/05/14 07:01:28;;;;;;;20.95;4.82;;;16.00;99.90;;;;;;5031193;28;20075;-84
2022/05/14 07:06:44;;;;;;;24.27;5.28;;;16.40;99.90;;;;;;5010511;28;20514;-82
2022/05/14 07:09:19;;;;;;;25.65;5.35;;;16.40;99.90;;;;;;4995305;28;20125;-82
2022/05/14 07:11:49;;;;;;;14.98;4.50;;;16.60;99.90;;;;;;4994409;28;20085;-84
2022/05/14 07:14:18;;;;;;;17.08;4.13;;;16.60;99.90;;;;;;5011398;28;20125;-83
2022/05/14 07:16:45;;;;;;;17.52;3.83;;;16.70;99.90;;;;;;5011314;28;20081;-84
2022/05/14 07:19:11;;;;;;;15.95;3.88;;;16.60;99.90;;;;;;4998067;28;20057;-84
2022/05/14 07:21:40;;;;;;;18.13;4.22;;;16.40;99.90;;;;;;5064161;28;20144;-83
2022/05/14 07:24:09;;;;;;;18.63;4.28;;;16.30;99.90;;;;;;5014463;28;20057;-82
2022/05/14 07:26:36;;;;;;;19.15;4.78;;;16.30;99.90;;;;;;5014491;28;20409;-82
2022/05/14 07:29:07;;;;;;;19.67;4.15;;;16.50;99.90;;;;;;5030586;28;20366;-83
2022/05/14 07:31:34;;;;;;;17.00;3.95;;;16.80;99.90;;;;;;5030658;28;20045;-83
2022/05/14 07:34:02;;;;;;;20.58;4.40;;;17.00;99.90;;;;;;5013910;28;20237;-83
2022/05/14 07:36:30;;;;;;;17.73;4.22;;;17.10;99.90;;;;;;5030616;28;20049;-82
2022/05/14 07:39:00;;;;;;;20.58;4.35;;;17.30;97.90;;;;;;5013813;28;20053;-82
2022/05/14 07:41:28;;;;;;;19.50;4.50;;;17.40;96.20;;;;;;5030640;28;20061;-83
2022/05/14 07:43:57;;;;;;;18.73;4.50;;;17.60;94.80;;;;;;5046570;28;20057;-83
2022/05/14 07:46:30;;;;;;;19.95;4.70;;;17.80;93.20;;;;;;5046952;28;20056;-82
2022/05/14 07:48:58;;;;;;;19.38;4.72;;;17.90;92.00;;;;;;5046348;28;20048;-83
2022/05/14 07:51:25;;;;;;;20.65;4.63;;;18.10;92.70;;;;;;5014030;28;20041;-83
2022/05/14 07:53:51;;;;;;;20.30;5.15;;;18.30;92.90;;;;;;5013074;28;20045;-82
2022/05/14 07:56:18;;;;;;;20.38;4.65;;;18.50;90.70;;;;;;5029934;28;20494;-84
2022/05/14 07:58:43;;;;;;;19.27;4.20;;;18.70;87.80;;;;;;5029753;28;20049;-83
2022/05/14 08:01:11;;;;;;;19.60;5.07;;;18.70;83.70;;;;;;5013858;28;20040;-82
2022/05/14 08:03:36;;;;;;;19.88;4.93;;;18.60;82.10;;;;;;5063322;28;20053;-82
2022/05/14 08:06:03;;;;;;;19.83;4.70;;;18.40;83.00;;;;;;5045910;28;20037;-82
2022/05/14 08:08:29;;;;;;;19.13;4.70;;;18.20;82.20;;;;;;5013667;28;20049;-83
2022/05/14 08:10:55;;;;;;;17.85;4.82;;;18.10;80.70;;;;;;5012875;28;20041;-83
2022/05/14 08:13:24;;;;;;;16.52;3.78;;;18.00;81.10;;;;;;5013356;28;20084;-82
2022/05/14 08:15:51;;;;;;;18.58;5.07;;;17.90;79.90;;;;;;5013006;28;20057;-83
2022/05/14 08:18:17;;;;;;;17.25;3.88;;;17.90;79.40;;;;;;5028760;28;20095;-83
2022/05/14 08:20:45;;;;;;;16.02;4.07;;;17.80;78.20;;;;;;5029636;28;20045;-83
2022/05/14 08:25:58;;;;;;;20.63;4.93;;;18.00;77.60;;;;;;5063127;28;20063;-83
2022/05/14 08:28:24;;;;;;;18.52;3.92;;;18.80;75.50;;;;;;5032155;28;20049;-83
2022/05/14 08:30:49;;;;;;;23.67;4.50;;;19.60;71.00;;;;;;5028575;28;20044;-82
2022/05/14 08:33:15;;;;;;;19.42;4.22;;;19.90;67.70;;;;;;5028048;28;20056;-83
2022/05/14 08:35:42;;;;;;;20.50;4.60;;;20.40;65.90;;;;;;5010025;28;20045;-85
2022/05/14 08:38:10;;;;;;;18.80;5.22;;;21.10;64.50;;;;;;5026423;28;20095;-83
2022/05/14 08:40:52;;;;;;;20.40;4.57;;;21.80;61.00;;;;;;5009219;28;20062;-84
2022/05/14 08:43:29;;;;;;;17.83;4.50;;;21.80;59.00;;;;;;5029002;28;20240;-83
2022/05/14 08:45:55;;;;;;;18.45;4.32;;;21.00;58.70;;;;;;5012353;28;20045;-84
2022/05/14 08:48:29;;;;;;;18.88;4.47;;;21.10;61.20;;;;;;5040215;28;20060;-83
2022/05/14 08:51:09;;;;;;;15.68;4.07;;;21.40;58.50;;;;;;5012446;28;20107;-84
2022/05/14 08:53:37;;;;;;;20.23;5.47;;;20.90;58.30;;;;;;5012599;28;20077;-83
2022/05/14 08:56:21;;;;;;;18.10;5.43;;;21.00;58.40;;;;;;4995656;28;20111;-83
2022/05/14 08:59:25;;;;;;;16.92;3.75;;;21.30;57.70;;;;;;5028710;28;20045;-84
2022/05/14 09:01:57;;;;;;;17.98;4.97;;;21.30;57.70;;;;;;5045575;28;20046;-85
2022/05/14 09:04:22;;;;;;;18.27;4.70;;;20.90;58.30;;;;;;5001993;28;20045;-83
2022/05/14 09:06:50;;;;;;;18.90;3.92;;;20.80;58.70;;;;;;5013670;28;20102;-86
2022/05/14 09:09:16;;;;;;;20.60;5.15;;;21.20;58.70;;;;;;5011637;28;20061;-83
2022/05/14 09:11:55;;;;;;;20.15;5.07;;;21.80;57.30;;;;;;5009098;28;20777;-83
2022/05/14 09:14:35;;;;;;;19.30;4.68;;;22.90;54.10;;;;;;5047246;28;20095;-84
2022/05/14 09:17:20;;;;;;;19.70;5.53;;;22.90;51.70;;;;;;5045016;28;20125;-84
2022/05/14 09:19:47;;;;;;;17.73;4.67;;;21.90;52.70;;;;;;5008757;28;20053;-83
2022/05/14 09:22:22;;;;;;;18.02;5.38;;;20.70;54.80;;;;;;5029102;28;20080;-84
2022/05/14 09:25:16;;;;;;;18.42;4.38;;;20.00;57.60;;;;;;5028677;28;20045;-85
2022/05/14 09:27:59;;;;;;;13.93;3.90;;;21.10;57.10;;;;;;5028821;28;20049;-83
2022/05/14 09:30:55;;;;;;;21.38;5.00;;;22.50;54.20;;;;;;5015298;28;20054;-85
2022/05/14 09:33:28;;;;;;;25.25;5.32;;;22.90;52.60;;;;;;5057011;28;20486;-84
2022/05/14 09:35:59;;;;;;;12.75;3.80;;;22.80;51.30;;;;;;5018393;28;20057;-85
2022/05/14 09:38:26;;;;;;;17.38;4.90;;;22.40;50.00;;;;;;5028596;28;20049;-84
2022/05/14 09:40:55;;;;;;;16.70;4.03;;;22.50;52.10;;;;;;5000612;28;20093;-86
2022/05/14 09:43:20;;;;;;;15.48;3.75;;;23.40;50.10;;;;;;5007383;28;20495;-85
2022/05/14 09:46:00;;;;;;;17.80;4.35;;;24.60;49.20;;;;;;5013404;28;20049;-85
2022/05/14 09:48:51;;;;;;;13.10;3.70;;;25.80;47.30;;;;;;5006434;28;20053;-85
2022/05/14 09:51:47;;;;;;;16.00;3.88;;;26.40;41.70;;;;;;5028484;28;20067;-85
2022/05/14 09:54:24;;;;;;;13.43;4.07;;;26.60;40.00;;;;;;5025029;28;20524;-85
2022/05/14 09:57:01;;;;;;;13.88;4.22;;;27.10;40.90;;;;;;5030568;28;20053;-84
2022/05/14 09:59:51;;;;;;;16.52;3.97;;;27.70;38.50;;;;;;5012428;28;20061;-85
2022/05/14 10:02:27;;;;;;;17.90;4.45;;;27.90;38.80;;;;;;5030211;28;20049;-84
2022/05/14 10:04:58;;;;;;;;;;;28.40;37.00;;;;;;5015066;28;20138;-86
2022/05/14 10:07:50;;;;;;;17.20;3.78;;;27.80;36.90;;;;;;5032165;28;19944;-86
2022/05/14 10:10:38;;;;;;;16.30;3.88;;;27.00;36.80;;;;;;5014464;28;20053;-84
2022/05/14 10:13:22;;;;;;;11.73;3.63;;;27.10;37.10;;;;;;5036232;28;20038;-84
2022/05/14 10:16:06;;;;;;;17.55;4.70;;;27.20;38.20;;;;;;5012034;28;20045;-83
2022/05/14 10:19:06;;;;;;;13.32;4.22;;;27.00;37.60;;;;;;5029786;28;20052;-84
2022/05/14 10:21:56;;;;;;;18.60;4.85;;;26.00;38.30;;;;;;5030539;28;20459;-84
2022/05/14 10:27:31;;;;;;;15.65;3.67;;;24.40;42.10;;;;;;5028641;28;20112;-85
2022/05/14 10:30:25;;;;;;;15.15;4.00;;;23.50;43.70;;;;;;5027052;28;20047;-85
2022/05/14 10:33:07;;;;;;;14.27;4.13;;;24.60;43.60;;;;;;5000267;28;20625;-85
2022/05/14 10:35:45;;;;;;;14.63;4.40;;;26.30;37.90;;;;;;5013246;28;20057;-85
2022/05/14 10:38:19;;;;;;;18.30;4.47;;;27.00;38.10;;;;;;5023980;28;20688;-83
2022/05/14 10:40:53;;;;;;;15.25;3.75;;;26.70;37.30;;;;;;5018934;28;20058;-83
2022/05/14 10:43:46;;;;;;;13.40;3.88;;;26.90;37.90;;;;;;5016381;28;20056;-83
2022/05/14 10:46:18;;;;;;;15.23;3.90;;;28.20;35.10;;;;;;5025029;28;20052;-83
2022/05/14 10:48:49;;;;;;;16.55;4.30;;;28.70;33.90;;;;;;5027977;28;20050;-84
2022/05/14 10:51:24;;;;;;;16.10;4.68;;;27.60;33.60;;;;;;5009819;28;20041;-83
2022/05/14 10:53:50;;;;;;;18.60;4.10;;;27.20;35.10;;;;;;5031176;28;20042;-82
2022/05/14 10:56:54;;;;;;;16.33;4.32;;;26.50;35.70;;;;;;5030794;28;20046;-82
2022/05/14 11:00:02;;;;;;;18.63;4.30;;;25.60;36.50;;;;;;5018690;28;20137;-82
2022/05/14 11:02:32;;;;;;;15.80;3.60;;;24.80;37.60;;;;;;4995305;28;20064;-82
2022/05/14 11:04:58;;;;;;;14.10;4.35;;;25.10;39.20;;;;;;5014573;28;20064;-84
2022/05/14 11:07:43;;;;;;;14.40;4.00;;;26.40;38.00;;;;;;5031097;28;20049;-83
2022/05/14 11:10:27;;;;;;;16.70;3.78;;;26.40;35.40;;;;;;5018778;28;20042;-82
2022/05/14 11:12:54;;;;;;;18.35;4.53;;;25.60;36.80;;;;;;4994904;28;20041;-83
2022/05/14 11:15:25;;;;;;;18.33;4.28;;;25.50;38.70;;;;;;4994345;28;20060;-84
2022/05/14 11:18:09;;;;;;;14.07;4.00;;;26.60;37.40;;;;;;5011635;28;20486;-84
2022/05/14 11:20:36;;;;;;;14.55;4.07;;;27.90;35.50;;;;;;5013728;28;20073;-83
2022/05/14 11:23:09;;;;;;;16.20;4.55;;;29.00;34.20;;;;;;4994514;28;20045;-84
2022/05/14 11:25:35;;;;;;;16.10;3.80;;;29.60;31.30;;;;;;5010101;28;20046;-83
2022/05/14 11:28:12;;;;;;;16.05;4.20;;;28.70;31.70;;;;;;4997570;28;20140;-84
2022/05/14 11:30:46;;;;;;;16.02;4.03;;;27.90;31.00;;;;;;5013062;28;20068;-83
2022/05/14 11:33:22;;;;;;;12.07;3.75;;;27.20;34.20;;;;;;4994086;28;20132;-83
2022/05/14 11:35:50;;;;;;;12.70;3.90;;;27.70;32.50;;;;;;5025465;28;20060;-82
2022/05/14 11:38:25;;;;;;;12.80;4.13;;;28.50;32.10;;;;;;5024507;28;20060;-83
2022/05/14 11:41:01;;;;;;;14.43;4.23;;;28.60;31.30;;;;;;5062525;28;20061;-83
2022/05/14 11:43:30;;;;;;;14.75;3.78;;;28.50;31.30;;;;;;5012806;28;20846;-83
2022/05/14 11:46:29;;;;;;;14.75;4.32;;;29.20;31.70;;;;;;5030340;28;20042;-84
2022/05/14 11:49:10;;;;;;;13.55;4.35;;;30.70;31.50;;;;;;5011179;28;20124;-83
2022/05/14 11:51:35;;;;;;;15.60;4.43;;;31.60;29.10;;;;;;5030634;28;20633;-83
2022/05/14 11:54:07;;;;;;;13.60;3.78;;;31.40;28.90;;;;;;5012039;28;20125;-85
2022/05/14 11:56:59;;;;;;;15.00;3.92;;;31.20;28.60;;;;;;5003152;28;20177;-84
2022/05/14 12:00:00;;;;;;;15.30;4.15;;;30.80;28.40;;;;;;4992360;28;20068;-84
2022/05/14 12:03:04;;;;;;;13.15;3.55;;;31.00;28.80;;;;;;5012793;28;20033;-83
2022/05/14 12:05:43;;;;;;;19.48;4.60;;;29.80;28.90;;;;;;4987213;28;20067;-83
2022/05/14 12:08:18;;;;;;;17.23;4.38;;;28.30;30.00;;;;;;5018628;28;20148;-83
2022/05/14 12:10:57;;;;;;;15.02;3.85;;;26.70;32.00;;;;;;5006203;28;20050;-84
2022/05/14 12:13:48;;;;;;;15.90;3.70;;;25.70;33.70;;;;;;5014801;28;20590;-84
2022/05/14 12:16:14;;;;;;;14.90;4.30;;;24.90;35.00;;;;;;5004768;28;20115;-84
2022/05/14 12:18:42;;;;;;;20.52;4.57;;;24.40;36.20;;;;;;5028177;28;20045;-84
2022/05/14 12:21:09;;;;;;;18.27;4.00;;;24.40;36.60;;;;;;5011948;28;20053;-84
2022/05/14 12:23:39;;;;;;;15.95;3.97;;;24.40;36.20;;;;;;5021500;28;20050;-83
2022/05/14 12:26:17;;;;;;;15.07;4.30;;;24.20;36.80;;;;;;5021458;28;20076;-84
2022/05/14 12:28:43;;;;;;;15.80;3.72;;;24.20;37.70;;;;;;5044793;28;20053;-83
2022/05/14 12:34:13;;;;;;;15.85;4.18;;;24.90;36.20;;;;;;4967605;28;20108;-83
2022/05/14 12:36:51;;;;;;;15.48;4.13;;;24.80;35.90;;;;;;4937446;28;20539;-84
2022/05/14 12:39:20;;;;;;;14.88;3.92;;;24.60;36.00;;;;;;4997680;28;20167;-84
2022/05/14 12:41:50;;;;;;;14.40;3.90;;;24.50;36.30;;;;;;5009629;28;20053;-83
2022/05/14 12:44:23;;;;;;;18.95;4.97;;;24.40;36.30;;;;;;5023326;28;20367;-84
2022/05/14 12:46:54;;;;;;;14.45;4.00;;;24.50;36.80;;;;;;5022616;28;20165;-84
2022/05/14 12:49:29;;;;;;;18.98;4.72;;;25.40;35.50;;;;;;5006072;28;20553;-84
2022/05/14 12:51:57;;;;;;;13.93;3.70;;;25.80;35.30;;;;;;5024557;28;20076;-84
2022/05/14 12:54:30;;;;;;;15.80;4.10;;;26.40;34.30;;;;;;4998505;28;20578;-85
2022/05/14 12:57:10;;;;;;;16.80;4.28;;;26.30;33.70;;;;;;5008759;28;20153;-83
2022/05/14 12:59:36;;;;;;;16.10;4.22;;;26.00;33.50;;;;;;5011848;28;20056;-84
2022/05/14 13:02:08;;;;;;;17.55;4.68;;;25.80;34.30;;;;;;5018347;28;20086;-84
2022/05/14 13:04:43;;;;;;;15.73;4.18;;;25.30;34.60;;;;;;5015554;28;20406;-83
2022/05/14 13:07:10;;;;;;;17.33;3.90;;;24.80;36.10;;;;;;5008652;28;20049;-85
2022/05/14 13:09:39;;;;;;;15.80;3.67;;;24.50;37.00;;;;;;5005550;28;20454;-83
2022/05/14 13:12:06;;;;;;;17.00;4.03;;;24.10;37.40;;;;;;5020296;28;20042;-84
2022/05/14 13:14:36;;;;;;;19.85;5.22;;;23.80;38.00;;;;;;5036452;28;20088;-84